createdAt,value
2023-05-16T00:00:48.963Z,57.39
2023-05-16T00:03:16.077Z,57.21
2023-05-16T00:05:43.151Z,57.46
2023-05-16T00:08:10.183Z,57.24
2023-05-16T00:10:37.650Z,57.14
2023-05-16T00:13:04.850Z,57.02
2023-05-16T00:15:32.219Z,56.87
2023-05-16T00:17:59.800Z,57.39
2023-05-16T00:20:28.641Z,57.23
2023-05-16T00:22:56.391Z,57.43
2023-05-16T00:25:23.559Z,57.49
2023-05-16T00:27:50.781Z,57.23
2023-05-16T00:30:17.902Z,57.07
2023-05-16T00:32:45.010Z,56.82
2023-05-16T00:35:12.641Z,56.98
2023-05-16T00:37:40.151Z,56.63
2023-05-16T00:40:07.990Z,56.43
2023-05-16T00:42:36.202Z,56.26
2023-05-16T00:45:05.013Z,56.23
2023-05-16T00:47:32.426Z,56.40
2023-05-16T00:49:59.663Z,56.36
2023-05-16T00:52:26.875Z,56.01
2023-05-16T00:54:54.043Z,56.32
2023-05-16T00:57:21.232Z,55.86
2023-05-16T00:59:48.490Z,56.22
2023-05-16T01:02:15.602Z,56.16
2023-05-16T01:04:44.707Z,56.27
2023-05-16T01:07:12.253Z,55.94
2023-05-16T01:09:39.519Z,56.01
2023-05-16T01:12:28.421Z,55.91
2023-05-16T01:15:00.933Z,55.79
2023-05-16T01:17:49.677Z,56.12
2023-05-16T01:20:30.524Z,56.01
2023-05-16T01:23:54.801Z,56.43
2023-05-16T01:26:23.148Z,56.37
2023-05-16T01:28:52.325Z,56.37
2023-05-16T01:31:21.087Z,56.65
2023-05-16T01:33:48.789Z,56.63
2023-05-16T01:36:26.751Z,57.00
2023-05-16T01:39:12.083Z,56.51
2023-05-16T01:41:42.362Z,56.77
2023-05-16T01:44:23.475Z,56.84
2023-05-16T01:46:57.050Z,56.60
2023-05-16T01:49:39.444Z,56.31
2023-05-16T01:52:16.315Z,56.66
2023-05-16T01:54:48.509Z,56.62
2023-05-16T01:57:18.014Z,57.05
2023-05-16T01:59:46.538Z,57.10
2023-05-16T02:02:13.542Z,57.09
2023-05-16T02:04:40.638Z,57.33
2023-05-16T02:07:07.785Z,57.48
2023-05-16T02:09:34.752Z,58.08
2023-05-16T02:12:02.533Z,57.76
2023-05-16T02:14:29.651Z,58.11
2023-05-16T02:16:57.396Z,57.68
2023-05-16T02:19:24.419Z,57.62
2023-05-16T02:21:51.429Z,57.70
2023-05-16T02:24:18.338Z,57.09
2023-05-16T02:26:45.350Z,57.18
2023-05-16T02:29:12.350Z,57.12
2023-05-16T02:31:39.596Z,56.65
2023-05-16T02:34:07.456Z,56.41
2023-05-16T02:36:36.309Z,55.60
2023-05-16T02:39:04.327Z,55.63
2023-05-16T02:41:31.893Z,55.34
2023-05-16T02:43:58.845Z,55.20
2023-05-16T02:46:31.132Z,54.89
2023-05-16T02:48:58.320Z,54.83
2023-05-16T02:51:27.354Z,54.57
2023-05-16T02:53:57.302Z,54.39
2023-05-16T02:56:24.497Z,54.49
2023-05-16T02:58:51.571Z,54.39
2023-05-16T03:01:18.740Z,53.82
2023-05-16T03:03:45.955Z,53.50
2023-05-16T03:06:13.178Z,53.45
2023-05-16T03:08:40.169Z,53.25
2023-05-16T03:11:07.084Z,53.06
2023-05-16T03:13:34.066Z,52.12
2023-05-16T03:16:01.093Z,51.73
2023-05-16T03:18:28.077Z,51.80
2023-05-16T03:20:55.037Z,51.44
2023-05-16T03:23:24.382Z,51.50
2023-05-16T03:25:51.571Z,51.12
2023-05-16T03:28:21.451Z,51.04
2023-05-16T03:30:48.435Z,50.76
2023-05-16T03:33:15.509Z,50.65
2023-05-16T03:35:43.658Z,50.64
2023-05-16T03:38:11.276Z,50.14
2023-05-16T03:40:38.464Z,49.86
2023-05-16T03:43:05.421Z,50.08
2023-05-16T03:45:32.567Z,49.26
2023-05-16T03:47:59.603Z,49.83
2023-05-16T03:50:26.753Z,49.76
2023-05-16T03:52:54.512Z,49.02
2023-05-16T03:55:21.757Z,49.58
2023-05-16T03:57:50.255Z,47.99
2023-05-16T04:00:17.610Z,48.42
2023-05-16T04:02:45.425Z,47.97
2023-05-16T04:05:13.312Z,47.83
2023-05-16T04:07:43.258Z,47.59
2023-05-16T04:10:11.040Z,47.76
2023-05-16T04:12:38.062Z,47.60
2023-05-16T04:15:06.971Z,47.33
2023-05-16T04:17:34.696Z,47.67
2023-05-16T04:20:01.797Z,46.96
2023-05-16T04:22:28.784Z,46.75
2023-05-16T04:24:55.874Z,46.60
2023-05-16T04:27:23.621Z,46.75
2023-05-16T04:29:50.783Z,46.64
2023-05-16T04:32:18.370Z,46.88
2023-05-16T04:34:46.897Z,46.47
2023-05-16T04:37:14.296Z,46.52
2023-05-16T04:39:42.828Z,46.27
2023-05-16T04:42:10.085Z,46.06
2023-05-16T04:44:37.892Z,45.99
2023-05-16T04:47:05.051Z,45.92
2023-05-16T04:49:31.936Z,46.11
2023-05-16T04:51:59.328Z,45.84
2023-05-16T04:54:26.584Z,45.59
2023-05-16T04:56:53.596Z,45.70
2023-05-16T04:59:21.391Z,46.13
2023-05-16T05:01:48.339Z,45.81
2023-05-16T05:04:15.322Z,45.96
2023-05-16T05:06:42.286Z,45.77
2023-05-16T05:09:09.909Z,46.02
2023-05-16T05:11:37.007Z,45.96
2023-05-16T05:14:04.234Z,45.64
2023-05-16T05:16:31.463Z,45.61
2023-05-16T05:18:58.493Z,45.67
2023-05-16T05:21:25.616Z,45.49
2023-05-16T05:23:52.897Z,45.39
2023-05-16T05:26:19.833Z,45.51
2023-05-16T05:28:53.926Z,45.28
2023-05-16T05:31:28.608Z,45.52
2023-05-16T05:33:57.054Z,45.52
2023-05-16T05:36:24.083Z,44.77
2023-05-16T05:38:51.205Z,44.64
2023-05-16T05:41:18.288Z,44.84
2023-05-16T05:43:45.356Z,44.65
2023-05-16T05:46:12.388Z,44.56
2023-05-16T05:48:39.854Z,44.58
2023-05-16T05:51:07.025Z,44.66
2023-05-16T05:53:34.665Z,44.67
2023-05-16T05:56:01.747Z,44.58
2023-05-16T05:58:28.747Z,44.61
2023-05-16T06:00:55.717Z,44.37
2023-05-16T06:03:22.697Z,44.40
2023-05-16T06:05:49.774Z,43.74
2023-05-16T06:08:16.749Z,43.95
2023-05-16T06:10:44.026Z,43.17
2023-05-16T06:13:11.090Z,43.11
2023-05-16T06:15:38.009Z,43.20
2023-05-16T06:18:05.228Z,42.74
2023-05-16T06:20:32.301Z,43.10
2023-05-16T06:22:59.400Z,42.67
2023-05-16T06:25:26.500Z,42.44
2023-05-16T06:27:53.696Z,41.62
2023-05-16T06:30:20.616Z,41.51
2023-05-16T06:32:47.718Z,41.06
2023-05-16T06:35:14.630Z,40.46
2023-05-16T06:37:43.161Z,40.43
2023-05-16T06:40:12.044Z,39.61
2023-05-16T06:42:39.106Z,39.87
2023-05-16T06:45:07.025Z,40.36
2023-05-16T06:47:34.157Z,39.88
2023-05-16T06:50:01.209Z,39.71
2023-05-16T06:52:28.899Z,39.83
2023-05-16T06:54:55.932Z,39.40
2023-05-16T06:57:22.869Z,39.59
2023-05-16T06:59:49.796Z,39.41
2023-05-16T07:02:16.941Z,39.29
2023-05-16T07:04:43.968Z,39.35
2023-05-16T07:07:11.020Z,39.34
2023-05-16T07:09:38.151Z,39.32
2023-05-16T07:12:05.817Z,39.15
2023-05-16T07:14:32.973Z,39.55
2023-05-16T07:17:00.051Z,39.41
2023-05-16T07:19:27.333Z,38.82
2023-05-16T07:21:54.525Z,38.75
2023-05-16T07:24:21.527Z,38.21
2023-05-16T07:26:48.507Z,38.08
2023-05-16T07:29:15.875Z,37.56
2023-05-16T07:31:42.935Z,38.07
2023-05-16T07:34:11.660Z,37.86
2023-05-16T07:36:39.033Z,38.02
2023-05-16T07:39:06.059Z,38.04
2023-05-16T07:41:33.026Z,38.18
2023-05-16T07:44:00.048Z,38.04
2023-05-16T07:46:27.111Z,37.88
2023-05-16T07:48:54.225Z,37.95
2023-05-16T07:51:21.214Z,37.51
2023-05-16T07:53:48.229Z,37.08
2023-05-16T07:56:15.897Z,36.69
2023-05-16T07:58:43.096Z,36.14
2023-05-16T08:01:10.135Z,35.12
2023-05-16T08:03:37.466Z,34.34
2023-05-16T08:06:04.983Z,33.47
2023-05-16T08:08:32.232Z,32.07
2023-05-16T08:10:59.161Z,30.88
2023-05-16T08:13:26.317Z,30.43
2023-05-16T08:15:53.470Z,28.97
2023-05-16T08:18:22.294Z,28.90
2023-05-16T08:20:49.737Z,27.48
2023-05-16T08:23:16.768Z,27.56
2023-05-16T08:25:43.854Z,26.62
2023-05-16T08:28:11.189Z,26.33
2023-05-16T08:30:39.401Z,25.46
2023-05-16T08:33:08.250Z,26.38
2023-05-16T08:35:35.740Z,26.14
2023-05-16T08:38:03.466Z,26.48
2023-05-16T08:40:31.567Z,26.48
2023-05-16T08:42:59.580Z,26.89
2023-05-16T08:45:27.245Z,27.56
2023-05-16T08:47:59.417Z,27.68
2023-05-16T08:50:31.168Z,27.60
2023-05-16T08:52:58.284Z,28.16
2023-05-16T08:55:27.537Z,28.41
2023-05-16T08:57:55.247Z,28.97
2023-05-16T09:00:22.721Z,29.09
2023-05-16T09:02:51.060Z,29.77
2023-05-16T09:05:18.247Z,29.81
2023-05-16T09:07:46.228Z,29.72
2023-05-16T09:10:13.554Z,29.83
2023-05-16T09:12:42.255Z,29.32
2023-05-16T09:15:11.162Z,29.90
2023-05-16T09:17:44.994Z,29.80
2023-05-16T09:20:16.701Z,29.44
2023-05-16T09:22:58.034Z,28.26
2023-05-16T09:25:31.014Z,28.52
2023-05-16T09:28:02.778Z,28.62
2023-05-16T09:30:37.289Z,28.04
2023-05-16T09:33:07.482Z,27.60
2023-05-16T09:35:44.696Z,28.19
2023-05-16T09:38:17.282Z,30.05
2023-05-16T09:40:46.061Z,32.11
2023-05-16T09:43:16.973Z,33.10
2023-05-16T09:45:49.281Z,33.61
2023-05-16T09:48:18.067Z,34.67
2023-05-16T09:50:54.602Z,35.81
2023-05-16T09:53:29.000Z,35.97
2023-05-16T09:56:07.989Z,35.50
2023-05-16T09:58:37.208Z,35.99
2023-05-16T10:01:07.483Z,36.13
2023-05-16T10:03:37.261Z,36.56
2023-05-16T10:06:05.955Z,37.02
2023-05-16T10:08:37.735Z,36.98
2023-05-16T10:11:06.636Z,36.61
2023-05-16T10:13:35.354Z,37.98
2023-05-16T10:16:08.227Z,38.75
2023-05-16T10:18:36.829Z,39.02
2023-05-16T10:21:11.746Z,40.78
2023-05-16T10:23:42.967Z,40.92
2023-05-16T10:26:12.037Z,40.34
2023-05-16T10:28:41.374Z,41.83
2023-05-16T10:31:10.097Z,42.63
2023-05-16T10:33:37.300Z,42.40
2023-05-16T10:36:05.748Z,42.27
2023-05-16T10:38:34.745Z,42.21
2023-05-16T10:41:02.284Z,42.47
2023-05-16T10:43:33.729Z,44.07
2023-05-16T10:46:10.193Z,44.20
2023-05-16T10:48:41.929Z,42.93
2023-05-16T10:51:24.181Z,42.44
2023-05-16T10:53:55.557Z,41.03
2023-05-16T10:56:24.415Z,40.48
2023-05-16T10:58:54.181Z,41.12
2023-05-16T11:01:30.470Z,40.53
2023-05-16T11:03:57.550Z,39.95
2023-05-16T11:06:26.286Z,43.28
2023-05-16T11:09:07.319Z,40.48
2023-05-16T11:11:52.623Z,40.11
2023-05-16T11:14:24.966Z,37.55
2023-05-16T11:17:01.075Z,39.43
2023-05-16T11:19:39.540Z,39.29
2023-05-16T11:22:10.456Z,42.37
2023-05-16T11:24:39.584Z,44.00
2023-05-16T11:27:07.110Z,43.94
2023-05-16T11:29:35.980Z,44.00
2023-05-16T11:32:05.327Z,44.62
2023-05-16T11:34:39.824Z,44.32
2023-05-16T11:37:07.103Z,45.03
2023-05-16T11:39:34.554Z,47.50
2023-05-16T11:42:02.579Z,47.75
2023-05-16T11:44:29.556Z,47.60
2023-05-16T11:46:56.761Z,46.41
2023-05-16T11:49:23.977Z,46.88
2023-05-16T11:51:52.582Z,46.34
2023-05-16T11:54:19.878Z,41.71
2023-05-16T11:56:46.947Z,43.57
2023-05-16T11:59:14.290Z,43.33
2023-05-16T12:01:41.530Z,43.50
2023-05-16T12:04:13.878Z,43.21
2023-05-16T12:06:44.522Z,43.32
2023-05-16T12:09:18.374Z,41.66
2023-05-16T12:11:45.721Z,43.24
2023-05-16T12:14:14.051Z,41.24
2023-05-16T12:16:46.719Z,43.95
2023-05-16T12:19:14.347Z,43.16
2023-05-16T12:21:41.458Z,43.88
2023-05-16T12:24:12.980Z,45.07
2023-05-16T12:26:42.632Z,43.68
2023-05-16T12:29:11.713Z,43.08
2023-05-16T12:31:40.659Z,41.98
2023-05-16T12:34:21.687Z,43.96
2023-05-16T12:36:53.058Z,42.99
2023-05-16T12:39:20.537Z,43.50
2023-05-16T12:41:47.529Z,44.41
2023-05-16T12:44:19.930Z,44.25
2023-05-16T12:46:50.219Z,44.34
2023-05-16T12:49:21.971Z,44.83
2023-05-16T12:51:53.415Z,44.35
2023-05-16T12:54:20.844Z,43.32
2023-05-16T12:56:47.806Z,43.11
2023-05-16T12:59:15.597Z,42.86
2023-05-16T13:01:42.886Z,42.99
2023-05-16T13:04:14.795Z,42.51
2023-05-16T13:06:57.373Z,43.40
2023-05-16T13:09:25.332Z,43.56
2023-05-16T13:11:53.032Z,43.05
2023-05-16T13:14:20.181Z,43.18
2023-05-16T13:16:47.157Z,43.25
2023-05-16T13:19:14.177Z,43.33
2023-05-16T13:21:43.878Z,44.84
2023-05-16T13:24:10.914Z,44.46
2023-05-16T13:26:38.684Z,44.62
2023-05-16T13:29:05.670Z,45.31
2023-05-16T13:31:32.718Z,44.96
2023-05-16T13:33:59.794Z,45.50
2023-05-16T13:36:26.983Z,45.85
2023-05-16T13:38:54.545Z,46.48
2023-05-16T13:41:22.262Z,46.45
2023-05-16T13:43:49.358Z,46.65
2023-05-16T13:46:16.412Z,46.88
2023-05-16T13:48:44.092Z,47.76
2023-05-16T13:51:11.559Z,47.24
2023-05-16T13:53:39.394Z,46.68
2023-05-16T13:56:06.635Z,46.99
2023-05-16T13:58:33.603Z,46.71
2023-05-16T14:01:00.671Z,46.64
2023-05-16T14:03:27.913Z,47.21
2023-05-16T14:05:55.023Z,48.37
2023-05-16T14:08:22.015Z,47.70
2023-05-16T14:10:49.180Z,47.24
2023-05-16T14:13:16.467Z,44.25
2023-05-16T14:15:43.501Z,45.46
2023-05-16T14:18:11.128Z,44.91
2023-05-16T14:20:38.111Z,44.26
2023-05-16T14:23:05.175Z,42.07
2023-05-16T14:25:32.447Z,42.42
2023-05-16T14:27:59.421Z,41.90
2023-05-16T14:30:27.439Z,42.85
2023-05-16T14:32:54.750Z,41.68
2023-05-16T14:35:21.850Z,41.43
2023-05-16T14:37:48.958Z,42.45
2023-05-16T14:40:15.988Z,41.83
2023-05-16T14:42:42.964Z,41.50
2023-05-16T14:45:10.885Z,41.77
2023-05-16T14:47:37.959Z,40.22
2023-05-16T14:50:05.438Z,43.02
2023-05-16T14:52:32.482Z,46.02
2023-05-16T14:54:59.528Z,44.28
2023-05-16T14:57:26.602Z,41.84
2023-05-16T14:59:53.599Z,41.70
2023-05-16T15:02:21.167Z,45.87
2023-05-16T15:04:48.248Z,46.49
2023-05-16T15:07:15.507Z,46.29
2023-05-16T15:09:42.536Z,45.64
2023-05-16T15:12:09.697Z,45.71
2023-05-16T15:14:36.648Z,45.25
2023-05-16T15:17:05.403Z,45.92
2023-05-16T15:19:34.383Z,46.66
2023-05-16T15:22:02.524Z,46.97
2023-05-16T15:24:29.970Z,45.71
2023-05-16T15:26:57.915Z,45.77
2023-05-16T15:29:26.387Z,45.20
2023-05-16T15:31:53.622Z,44.20
2023-05-16T15:34:20.593Z,44.70
2023-05-16T15:36:47.541Z,44.15
2023-05-16T15:39:14.596Z,44.79
2023-05-16T15:42:05.387Z,45.77
2023-05-16T15:44:28.652Z,46.81
2023-05-16T15:46:55.895Z,47.09
2023-05-16T15:49:22.880Z,48.22
2023-05-16T15:51:51.189Z,48.10
2023-05-16T15:54:18.150Z,47.80
2023-05-16T15:56:45.136Z,48.43
2023-05-16T15:59:12.516Z,48.22
2023-05-16T16:01:39.956Z,48.80
2023-05-16T16:04:07.351Z,48.51
2023-05-16T16:06:34.367Z,49.26
2023-05-16T16:09:01.453Z,49.52
2023-05-16T16:11:28.532Z,49.39
2023-05-16T16:13:55.570Z,49.09
2023-05-16T16:16:22.709Z,46.68
2023-05-16T16:18:50.624Z,49.24
2023-05-16T16:21:17.976Z,48.39
2023-05-16T16:23:45.005Z,48.81
2023-05-16T16:26:11.991Z,48.49
2023-05-16T16:28:39.481Z,48.47
2023-05-16T16:31:06.842Z,49.88
2023-05-16T16:33:34.663Z,50.73
2023-05-16T16:36:02.053Z,52.34
2023-05-16T16:38:29.077Z,52.25
2023-05-16T16:40:56.039Z,52.61
2023-05-16T16:43:23.006Z,53.35
2023-05-16T16:45:50.723Z,53.31
2023-05-16T16:48:17.815Z,53.75
2023-05-16T16:50:44.762Z,53.74
2023-05-16T16:53:12.085Z,54.45
2023-05-16T16:55:40.890Z,54.28
2023-05-16T16:58:08.288Z,55.32
2023-05-16T17:00:35.245Z,55.33
2023-05-16T17:03:04.900Z,54.92
2023-05-16T17:05:32.109Z,55.57
2023-05-16T17:07:59.164Z,55.22
2023-05-16T17:10:26.474Z,55.24
2023-05-16T17:12:54.778Z,55.27
2023-05-16T17:15:22.213Z,55.69
2023-05-16T17:17:49.545Z,55.78
2023-05-16T17:20:16.659Z,55.39
2023-05-16T17:22:43.707Z,55.84
2023-05-16T17:25:11.001Z,56.25
2023-05-16T17:27:38.008Z,56.00
2023-05-16T17:30:06.129Z,56.48
2023-05-16T17:32:33.391Z,55.98
2023-05-16T17:35:03.886Z,56.64
2023-05-16T17:37:31.062Z,55.94
2023-05-16T17:39:58.704Z,55.52
2023-05-16T17:42:25.825Z,55.55
2023-05-16T17:44:53.040Z,55.87
2023-05-16T17:47:19.993Z,56.27
2023-05-16T17:49:47.430Z,56.68
2023-05-16T17:52:15.239Z,57.07
2023-05-16T17:54:42.301Z,58.21
2023-05-16T17:57:09.355Z,58.59
2023-05-16T17:59:36.288Z,58.89
2023-05-16T18:02:04.206Z,58.77
2023-05-16T18:04:31.260Z,59.11
2023-05-16T18:06:58.368Z,60.12
2023-05-16T18:09:25.620Z,60.17
2023-05-16T18:11:52.876Z,60.52
2023-05-16T18:14:19.882Z,60.44
2023-05-16T18:16:47.305Z,60.39
2023-05-16T18:19:14.712Z,60.77
2023-05-16T18:21:44.407Z,60.72
2023-05-16T18:24:13.450Z,61.57
2023-05-16T18:26:40.801Z,61.56
2023-05-16T18:29:10.725Z,61.85
2023-05-16T18:31:41.356Z,61.99
2023-05-16T18:34:09.684Z,62.44
2023-05-16T18:36:36.621Z,62.33
2023-05-16T18:39:04.097Z,62.76
2023-05-16T18:41:31.172Z,62.39
2023-05-16T18:43:58.224Z,62.20
2023-05-16T18:46:25.236Z,62.24
2023-05-16T18:48:52.693Z,61.90
2023-05-16T18:51:19.771Z,61.73
2023-05-16T18:53:46.726Z,61.62
2023-05-16T18:56:13.755Z,61.32
2023-05-16T18:58:40.818Z,61.38
2023-05-16T19:01:08.452Z,61.12
2023-05-16T19:03:35.557Z,61.22
2023-05-16T19:06:02.736Z,61.01
2023-05-16T19:08:37.027Z,61.36
2023-05-16T19:11:13.843Z,60.85
2023-05-16T19:13:41.192Z,61.13
2023-05-16T19:16:08.378Z,60.92
2023-05-16T19:18:35.983Z,60.63
2023-05-16T19:21:03.710Z,60.63
2023-05-16T19:23:30.758Z,60.56
2023-05-16T19:25:58.259Z,60.10
2023-05-16T19:28:25.348Z,60.47
2023-05-16T19:30:52.336Z,59.81
2023-05-16T19:33:19.330Z,59.45
2023-05-16T19:35:46.420Z,59.16
2023-05-16T19:38:13.581Z,58.65
2023-05-16T19:40:40.544Z,58.10
2023-05-16T19:43:07.549Z,57.77
2023-05-16T19:45:35.017Z,57.40
2023-05-16T19:48:02.233Z,57.35
2023-05-16T19:50:29.408Z,57.43
2023-05-16T19:52:56.423Z,57.40
2023-05-16T19:55:25.537Z,57.43
2023-05-16T19:57:52.819Z,57.06
2023-05-16T20:00:20.251Z,57.24
2023-05-16T20:02:48.081Z,57.07
2023-05-16T20:05:19.951Z,57.01
2023-05-16T20:07:47.205Z,56.73
2023-05-16T20:10:14.230Z,56.66
2023-05-16T20:12:41.354Z,57.12
2023-05-16T20:15:10.927Z,56.73
2023-05-16T20:17:39.382Z,56.65
2023-05-16T20:20:08.323Z,56.67
2023-05-16T20:22:39.602Z,56.79
2023-05-16T20:25:07.461Z,56.64
2023-05-16T20:27:34.518Z,56.77
2023-05-16T20:30:02.924Z,57.05
2023-05-16T20:32:30.077Z,56.64
2023-05-16T20:34:57.358Z,56.95
2023-05-16T20:37:26.908Z,56.66
2023-05-16T20:40:01.534Z,56.35
2023-05-16T20:42:29.059Z,56.58
2023-05-16T20:44:58.658Z,56.35
2023-05-16T20:47:26.136Z,56.33
2023-05-16T20:49:53.148Z,56.34
2023-05-16T20:52:21.881Z,56.58
2023-05-16T20:54:49.103Z,56.66
2023-05-16T20:57:16.415Z,56.57
2023-05-16T20:59:43.492Z,56.47
2023-05-16T21:02:10.461Z,56.26
2023-05-16T21:04:38.283Z,56.51
2023-05-16T21:07:08.189Z,56.17
2023-05-16T21:09:37.184Z,56.21
2023-05-16T21:12:04.913Z,56.41
2023-05-16T21:14:32.066Z,56.29
2023-05-16T21:16:59.029Z,56.80
2023-05-16T21:19:28.342Z,56.62
2023-05-16T21:21:55.410Z,56.70
2023-05-16T21:24:22.417Z,56.78
2023-05-16T21:26:49.434Z,56.60
2023-05-16T21:29:16.388Z,56.80
2023-05-16T21:31:43.398Z,56.31
2023-05-16T21:34:10.533Z,56.51
2023-05-16T21:36:37.614Z,56.46
2023-05-16T21:39:04.708Z,56.46
2023-05-16T21:41:31.704Z,56.28
2023-05-16T21:43:58.758Z,56.34
2023-05-16T21:46:26.442Z,56.31
2023-05-16T21:48:53.515Z,56.55
2023-05-16T21:51:20.674Z,56.45
2023-05-16T21:53:47.906Z,56.29
2023-05-16T21:56:14.997Z,56.63
2023-05-16T21:58:42.633Z,56.76
2023-05-16T22:01:09.916Z,56.82
2023-05-16T22:03:37.146Z,56.66
2023-05-16T22:06:04.477Z,57.16
2023-05-16T22:08:31.536Z,57.34
2023-05-16T22:10:58.689Z,57.37
2023-05-16T22:13:25.963Z,57.48
2023-05-16T22:16:04.087Z,57.58
2023-05-16T22:18:33.135Z,57.84
2023-05-16T22:21:01.207Z,57.98
2023-05-16T22:23:28.397Z,57.94
2023-05-16T22:25:55.651Z,58.11
2023-05-16T22:28:22.747Z,58.33
2023-05-16T22:30:56.115Z,58.58
2023-05-16T22:33:26.317Z,58.27
2023-05-16T22:35:54.049Z,58.34
2023-05-16T22:38:21.504Z,58.15
2023-05-16T22:40:48.679Z,58.02
2023-05-16T22:43:15.911Z,57.84
2023-05-16T22:45:43.012Z,58.47
2023-05-16T22:48:12.028Z,57.99
2023-05-16T22:50:39.245Z,58.07
2023-05-16T22:53:12.719Z,58.16
2023-05-16T22:55:39.839Z,58.02
2023-05-16T22:58:07.109Z,58.13
2023-05-16T23:00:38.080Z,57.56
2023-05-16T23:03:05.409Z,58.06
2023-05-16T23:05:32.935Z,58.15
2023-05-16T23:08:03.356Z,58.24
2023-05-16T23:13:16.423Z,58.14
2023-05-16T23:16:03.690Z,58.19
2023-05-16T23:18:30.856Z,58.13
2023-05-16T23:20:58.086Z,57.74
2023-05-16T23:23:25.098Z,57.90
2023-05-16T23:25:52.951Z,57.74
2023-05-16T23:28:20.556Z,57.44
2023-05-16T23:30:48.299Z,57.49
2023-05-16T23:33:15.499Z,57.82
2023-05-16T23:35:42.802Z,57.80
2023-05-16T23:38:09.963Z,57.39
2023-05-16T23:40:37.133Z,57.46
2023-05-16T23:43:04.292Z,57.87
2023-05-16T23:54:49.588Z,58.10
2023-05-16T23:57:16.632Z,58.33
2023-05-16T23:59:43.523Z,57.95
